메인 페이지
METAR-TAF:

METAR-TAF

공항 :

Karpathos, 그리스

위도: 35-24-51N, 경도: 027-08-54E, 고도: 6m

현재 날씨관측

예보는 16분 전, 08:50시(UTC)에 발표되었습니다.
북북서13kt
온도 19°C
습도 49%
기압 1014 hPa
시정 10km 이상
고도 1800ft 상공 구름 조금

METAR: LGKP 090850Z 34013KT 9999 FEW018 19/08 Q1014

시각: 11:06 (09:06 UTC)

예보

예보는 1 시간 6분 전, 08:00시(UTC)에 발표되었습니다.
예보 대상 시간: 09일 09시부터 09일 18시까지 (UTC)
북북서15kt
시정 10km 이상
고도 1800ft 상공 구름 조금

TAF: LGKP 090800Z 0909/0918 33015KT 9999 FEW018

4,000개 이상의 공항 관측 자료 및 예보 (METAR 및 TAF 보고).

지도상에서 검색 가능한 기상관측소가 노란 점과 빨간 점으로 표시되어 있습니다.

기상관측소 명을 보려면 표시 위로 마우스를 이동하세요.

날씨 관측과 예보를 보려면 클릭하세요.

지도 변경 : 확대하려면 엑스 표시가 있는 녹색 버튼, 축소하려면 빼기 표시가 있는 녹색 버튼, 다음 페이지의 지도를 보려면 녹색 화살표를 클릭하세요.


METAR-TAF: